Time;durP1;ratioP1;P1;durP2;ratioP2;P2;SDS_P1;SDS_P2;PMS_P1;PMS_P2;Temp;Humidity;BMP_temperature;BMP_pressure;BME280_temperature;BME280_humidity;BME280_pressure;Samples;Min_cycle;Max_cycle;Signal;HPM_P1;HPM_P2
2023/12/19 00:01:37;;;;;;;19.88;9.23;;;4.80;60.40;;;;;;4944936;28;114695;-82
2023/12/19 00:04:06;;;;;;;19.52;8.82;;;4.80;60.40;;;;;;4946349;28;114735;-82
2023/12/19 00:06:34;;;;;;;15.90;8.98;;;4.80;60.40;;;;;;4943994;28;115130;-84
2023/12/19 00:09:04;;;;;;;20.88;9.77;;;4.80;60.50;;;;;;4944904;28;114934;-83
2023/12/19 00:11:34;;;;;;;17.73;8.68;;;4.90;60.50;;;;;;4945505;28;114891;-84
2023/12/19 00:14:03;;;;;;;16.67;8.38;;;4.90;60.50;;;;;;4913004;28;114506;-83
2023/12/19 00:16:30;;;;;;;19.00;9.18;;;4.80;60.50;;;;;;4943756;28;115020;-83
2023/12/19 00:18:57;;;;;;;16.30;8.38;;;4.80;60.50;;;;;;4943711;28;115267;-84
2023/12/19 00:21:25;;;;;;;16.00;8.85;;;4.80;60.50;;;;;;4944992;28;114650;-83
2023/12/19 00:23:52;;;;;;;17.45;8.20;;;4.80;60.50;;;;;;4944589;28;114452;-84
2023/12/19 00:26:21;;;;;;;16.25;7.65;;;4.80;60.60;;;;;;4946822;28;115245;-83
2023/12/19 00:28:49;;;;;;;16.20;8.25;;;4.80;60.60;;;;;;4955087;28;114628;-82
2023/12/19 00:31:20;;;;;;;15.95;7.60;;;4.70;60.60;;;;;;4950137;28;114500;-82
2023/12/19 00:33:48;;;;;;;18.15;7.88;;;4.80;60.70;;;;;;4947564;28;114768;-81
2023/12/19 00:36:22;;;;;;;15.80;7.22;;;4.70;60.70;;;;;;4928018;28;115433;-84
2023/12/19 00:38:50;;;;;;;16.25;7.40;;;4.70;60.70;;;;;;4945394;28;114679;-82
2023/12/19 00:41:17;;;;;;;17.33;8.30;;;4.70;60.70;;;;;;4944579;28;114437;-81
2023/12/19 00:43:45;;;;;;;16.05;7.38;;;4.70;60.80;;;;;;4944657;28;115129;-82
2023/12/19 00:46:12;;;;;;;16.20;6.85;;;4.80;60.80;;;;;;4928218;28;115270;-83
2023/12/19 00:48:40;;;;;;;16.95;6.90;;;4.70;60.80;;;;;;4943746;28;114693;-83
2023/12/19 00:51:10;;;;;;;11.93;6.20;;;4.70;60.70;;;;;;4928399;28;114754;-83
2023/12/19 00:53:38;;;;;;;12.50;6.90;;;4.70;60.70;;;;;;4945058;28;114518;-81
2023/12/19 00:56:11;;;;;;;15.60;6.95;;;4.70;60.70;;;;;;4946989;28;115129;-82
2023/12/19 00:58:39;;;;;;;13.02;6.88;;;4.70;60.60;;;;;;4947133;28;114787;-83
2023/12/19 01:01:06;;;;;;;14.40;7.25;;;4.70;60.60;;;;;;4948099;28;114660;-84
2023/12/19 01:03:34;;;;;;;12.07;6.50;;;4.80;60.70;;;;;;4947607;28;114624;-82
2023/12/19 01:06:03;;;;;;;17.13;7.15;;;4.80;60.70;;;;;;4950747;28;115707;-82
2023/12/19 01:08:30;;;;;;;13.20;6.70;;;4.80;60.60;;;;;;4950416;28;114663;-83
2023/12/19 01:10:58;;;;;;;12.82;6.93;;;4.80;60.60;;;;;;4948733;28;114331;-81
2023/12/19 01:13:25;;;;;;;15.98;7.93;;;4.80;60.60;;;;;;4947511;28;114568;-82
2023/12/19 01:15:53;;;;;;;16.10;7.00;;;4.80;60.60;;;;;;4946713;28;115156;-82
2023/12/19 01:18:20;;;;;;;17.17;7.55;;;4.80;60.60;;;;;;4951251;28;115186;-82
2023/12/19 01:20:47;;;;;;;14.07;7.50;;;4.80;60.70;;;;;;4949791;28;114484;-83
2023/12/19 01:23:15;;;;;;;17.08;7.55;;;4.80;60.70;;;;;;4948610;28;114424;-84
2023/12/19 01:25:43;;;;;;;15.02;7.00;;;4.70;60.70;;;;;;4947134;28;115483;-83
2023/12/19 01:28:11;;;;;;;17.23;7.25;;;4.80;60.70;;;;;;4947666;28;114805;-83
2023/12/19 01:30:40;;;;;;;13.55;6.80;;;4.80;60.70;;;;;;4931286;28;114727;-83
2023/12/19 01:33:09;;;;;;;13.93;6.35;;;4.70;60.60;;;;;;4947399;28;114691;-83
2023/12/19 01:35:36;;;;;;;12.68;6.75;;;4.70;60.60;;;;;;4947514;28;115126;-82
2023/12/19 01:38:04;;;;;;;17.88;7.38;;;4.70;60.70;;;;;;4947211;28;116082;-82
2023/12/19 01:40:31;;;;;;;13.20;7.00;;;4.70;60.70;;;;;;4947105;28;114472;-83
2023/12/19 01:43:01;;;;;;;17.38;7.47;;;4.70;60.80;;;;;;4948673;28;114723;-82
2023/12/19 01:45:29;;;;;;;15.50;6.97;;;4.70;60.70;;;;;;4930486;28;115259;-81
2023/12/19 01:47:56;;;;;;;13.63;6.60;;;4.70;60.70;;;;;;4945952;28;114913;-83
2023/12/19 01:50:24;;;;;;;12.85;5.93;;;4.70;60.60;;;;;;4947565;28;114312;-82
2023/12/19 01:52:56;;;;;;;19.88;7.57;;;4.80;60.70;;;;;;4930804;28;114570;-82
2023/12/19 01:55:28;;;;;;;35.35;11.50;;;4.80;60.70;;;;;;4929638;28;115615;-81
2023/12/19 01:57:55;;;;;;;38.05;12.95;;;4.80;60.70;;;;;;4930075;28;114663;-82
2023/12/19 02:00:23;;;;;;;37.13;13.95;;;4.70;60.70;;;;;;4930857;28;114949;-82
2023/12/19 02:02:51;;;;;;;42.90;15.13;;;4.80;60.70;;;;;;4948183;28;114344;-83
2023/12/19 02:05:19;;;;;;;42.85;13.05;;;4.70;60.70;;;;;;4929802;28;115580;-83
2023/12/19 02:07:48;;;;;;;35.35;14.27;;;4.70;60.60;;;;;;4930507;28;114547;-86
2023/12/19 02:10:15;;;;;;;28.30;15.05;;;4.80;60.60;;;;;;4930701;28;114474;-84
2023/12/19 02:12:43;;;;;;;36.35;18.33;;;4.70;60.60;;;;;;4948437;28;114725;-81
2023/12/19 02:15:12;;;;;;;36.50;18.55;;;4.70;60.60;;;;;;4946194;28;115237;-83
2023/12/19 02:17:40;;;;;;;30.45;16.48;;;4.70;60.60;;;;;;4945758;28;115932;-82
2023/12/19 02:20:08;;;;;;;30.70;16.48;;;4.70;60.70;;;;;;4929738;28;114367;-84
2023/12/19 02:22:35;;;;;;;26.05;14.43;;;4.70;60.80;;;;;;4919564;28;114379;-82
2023/12/19 02:25:03;;;;;;;19.23;9.93;;;4.70;60.80;;;;;;4930964;28;115209;-83
2023/12/19 02:27:31;;;;;;;20.95;9.77;;;4.70;60.80;;;;;;4930311;28;115250;-83
2023/12/19 02:30:00;;;;;;;26.75;14.90;;;4.70;60.70;;;;;;4915883;28;114773;-83
2023/12/19 02:32:33;;;;;;;38.78;22.70;;;4.70;60.60;;;;;;4931254;28;114437;-83
2023/12/19 02:35:01;;;;;;;44.13;24.65;;;4.70;60.60;;;;;;4930530;28;115534;-83
2023/12/19 02:37:28;;;;;;;44.13;23.92;;;4.70;60.60;;;;;;4946054;28;115221;-84
2023/12/19 02:39:55;;;;;;;49.42;25.90;;;4.70;60.60;;;;;;4930227;28;114497;-83
2023/12/19 02:42:23;;;;;;;69.38;38.20;;;4.70;60.60;;;;;;4914577;28;114985;-83
2023/12/19 02:44:50;;;;;;;70.28;40.75;;;4.70;60.60;;;;;;4949891;28;115438;-83
2023/12/19 02:47:17;;;;;;;78.47;42.85;;;4.70;60.60;;;;;;4965510;28;114811;-83
2023/12/19 02:49:45;;;;;;;84.80;49.83;;;4.70;60.50;;;;;;4950210;28;114531;-82
2023/12/19 02:52:15;;;;;;;101.68;60.00;;;4.70;60.50;;;;;;4966074;28;114700;-82
2023/12/19 02:54:48;;;;;;;107.15;62.10;;;4.70;60.50;;;;;;4964457;28;117473;-84
2023/12/19 02:57:15;;;;;;;108.85;63.17;;;4.70;60.60;;;;;;4965823;28;115192;-82
2023/12/19 02:59:43;;;;;;;98.10;56.33;;;4.70;60.60;;;;;;4949511;28;114852;-82
2023/12/19 03:02:10;;;;;;;95.95;57.45;;;4.80;60.60;;;;;;4965644;28;114677;-82
2023/12/19 03:04:41;;;;;;;92.68;52.65;;;4.80;60.50;;;;;;4964578;28;116115;-83
2023/12/19 03:07:09;;;;;;;90.95;50.17;;;4.80;60.70;;;;;;4964358;28;114895;-83
2023/12/19 03:09:37;;;;;;;68.65;43.08;;;4.80;60.70;;;;;;4965510;28;114573;-82
2023/12/19 03:12:06;;;;;;;63.70;37.13;;;4.90;60.60;;;;;;4965785;28;114513;-83
2023/12/19 03:14:35;;;;;;;42.13;24.02;;;4.90;60.60;;;;;;4964366;28;115053;-82
2023/12/19 03:17:03;;;;;;;21.63;11.70;;;4.90;60.60;;;;;;4964624;28;114643;-83
2023/12/19 03:19:31;;;;;;;18.15;10.38;;;4.90;60.60;;;;;;4965805;28;114441;-81
2023/12/19 03:21:58;;;;;;;21.70;11.48;;;5.00;60.60;;;;;;4965321;28;114694;-82
2023/12/19 03:24:28;;;;;;;19.67;12.93;;;4.90;60.60;;;;;;4964071;28;115641;-83
2023/12/19 03:26:55;;;;;;;30.58;18.02;;;5.00;60.70;;;;;;4964250;28;114665;-81
2023/12/19 03:29:23;;;;;;;52.80;30.95;;;5.00;60.60;;;;;;4948493;28;114800;-81
2023/12/19 03:31:50;;;;;;;55.15;34.30;;;5.10;60.40;;;;;;4981545;28;114435;-82
2023/12/19 03:34:17;;;;;;;76.07;44.88;;;5.00;60.40;;;;;;4964083;28;115045;-82
2023/12/19 03:36:45;;;;;;;84.28;47.78;;;5.10;60.30;;;;;;4965162;28;114838;-81
2023/12/19 03:39:15;;;;;;;80.38;48.40;;;5.10;60.30;;;;;;4964910;28;114677;-82
2023/12/19 03:41:42;;;;;;;67.38;39.40;;;5.10;60.30;;;;;;4948510;28;114511;-83
2023/12/19 03:44:29;;;;;;;71.40;43.22;;;5.20;60.30;;;;;;4964134;28;115044;-82
2023/12/19 03:46:57;;;;;;;68.22;42.42;;;5.10;60.20;;;;;;4965708;28;114675;-82
2023/12/19 03:49:24;;;;;;;61.67;35.70;;;5.20;60.20;;;;;;4965973;28;114393;-84
2023/12/19 03:51:52;;;;;;;63.88;34.90;;;5.20;60.20;;;;;;4965901;28;114482;-83
2023/12/19 03:54:19;;;;;;;47.20;25.38;;;5.20;60.20;;;;;;4964282;28;115324;-83
2023/12/19 03:56:46;;;;;;;45.33;24.58;;;5.20;60.20;;;;;;4963745;28;114766;-81
2023/12/19 03:59:14;;;;;;;33.10;18.17;;;5.20;60.10;;;;;;4964552;28;114347;-82
2023/12/19 04:01:44;;;;;;;21.40;11.48;;;5.20;60.00;;;;;;4981012;28;114497;-82
2023/12/19 04:04:12;;;;;;;20.13;10.20;;;5.20;60.00;;;;;;4963466;28;118310;-82
2023/12/19 04:06:43;;;;;;;15.88;8.18;;;5.20;60.00;;;;;;4973905;28;114794;-83
2023/12/19 04:09:11;;;;;;;18.10;10.38;;;5.20;60.00;;;;;;4982524;28;114393;-82
2023/12/19 04:11:46;;;;;;;21.63;11.40;;;5.30;60.00;;;;;;4965141;28;114709;-82
2023/12/19 04:14:14;;;;;;;36.88;20.05;;;5.20;60.00;;;;;;4963366;28;115129;-82
2023/12/19 04:16:42;;;;;;;37.13;19.80;;;5.20;59.40;;;;;;4963591;28;115838;-83
2023/12/19 04:19:09;;;;;;;44.65;22.98;;;5.20;59.80;;;;;;4963772;28;114552;-83
2023/12/19 04:21:37;;;;;;;39.60;21.85;;;5.20;59.70;;;;;;4964205;28;114432;-83
2023/12/19 04:24:05;;;;;;;29.45;14.00;;;5.30;59.70;;;;;;4947300;28;115791;-83
2023/12/19 04:26:33;;;;;;;24.02;13.52;;;5.20;59.60;;;;;;4947037;28;115136;-82
2023/12/19 04:29:00;;;;;;;26.67;13.60;;;5.20;59.60;;;;;;4964380;28;114859;-83
2023/12/19 04:31:27;;;;;;;30.58;15.20;;;5.20;59.50;;;;;;4965284;28;114529;-81
2023/12/19 04:33:55;;;;;;;30.02;15.23;;;5.20;59.60;;;;;;4962603;28;115676;-82
2023/12/19 04:36:25;;;;;;;29.83;15.45;;;5.20;59.70;;;;;;4963187;28;116513;-82
2023/12/19 04:38:53;;;;;;;23.85;11.70;;;5.20;59.80;;;;;;4964244;28;114396;-81
2023/12/19 04:41:20;;;;;;;19.77;9.95;;;5.20;59.80;;;;;;4947476;28;114857;-83
2023/12/19 04:43:47;;;;;;;18.75;8.45;;;5.20;59.80;;;;;;4946298;28;118300;-83
2023/12/19 04:46:15;;;;;;;18.98;7.68;;;5.20;59.80;;;;;;4981426;28;114748;-83
2023/12/19 04:48:42;;;;;;;16.40;7.88;;;5.20;59.90;;;;;;4947610;28;114380;-83
2023/12/19 04:51:23;;;;;;;17.00;7.10;;;5.20;59.90;;;;;;4965247;28;114448;-83
2023/12/19 04:53:51;;;;;;;14.07;6.38;;;5.20;59.80;;;;;;4962728;28;115931;-84
2023/12/19 04:56:18;;;;;;;12.75;6.20;;;5.20;59.80;;;;;;4963906;28;114791;-83
2023/12/19 04:58:49;;;;;;;15.63;6.90;;;5.20;59.70;;;;;;4964939;28;114319;-82
2023/12/19 05:01:16;;;;;;;13.05;5.97;;;5.10;59.80;;;;;;4965332;28;114496;-82
2023/12/19 05:03:44;;;;;;;14.60;6.18;;;5.20;59.80;;;;;;4964014;28;115054;-82
2023/12/19 05:06:17;;;;;;;14.20;6.63;;;5.10;59.90;;;;;;4962394;28;116522;-82
2023/12/19 05:08:45;;;;;;;12.90;6.90;;;5.10;59.90;;;;;;4963653;28;114436;-83
2023/12/19 05:11:13;;;;;;;13.27;5.68;;;5.10;60.00;;;;;;4963509;28;114594;-82
2023/12/19 05:13:40;;;;;;;11.30;5.78;;;5.10;60.00;;;;;;4962422;28;116330;-82
2023/12/19 05:16:15;;;;;;;11.52;6.40;;;5.00;59.90;;;;;;4979123;28;114891;-83
2023/12/19 05:18:43;;;;;;;13.68;6.60;;;5.10;60.00;;;;;;4963556;28;114723;-81
2023/12/19 05:21:11;;;;;;;14.88;6.85;;;5.00;60.00;;;;;;4964531;28;114577;-81
2023/12/19 05:23:39;;;;;;;15.35;6.85;;;5.00;59.90;;;;;;4962913;28;115141;-80
2023/12/19 05:26:07;;;;;;;18.38;7.95;;;5.00;59.90;;;;;;4948279;28;114656;-82
2023/12/19 05:28:35;;;;;;;15.77;7.00;;;5.00;60.00;;;;;;4964619;28;114363;-84
2023/12/19 05:31:03;;;;;;;14.50;6.55;;;5.00;60.00;;;;;;4963684;28;115038;-83
2023/12/19 05:33:35;;;;;;;13.52;6.60;;;5.00;60.00;;;;;;4965718;28;115083;-83
2023/12/19 05:36:03;;;;;;;12.63;5.82;;;4.90;59.90;;;;;;4964657;28;115232;-83
2023/12/19 05:38:32;;;;;;;14.95;7.60;;;5.00;59.90;;;;;;4964647;28;114693;-82
2023/12/19 05:41:00;;;;;;;12.82;6.70;;;4.90;59.90;;;;;;4949542;28;114701;-85
2023/12/19 05:43:27;;;;;;;14.07;7.70;;;4.90;59.90;;;;;;4942501;28;116508;-83
2023/12/19 05:45:55;;;;;;;14.93;7.65;;;5.00;60.00;;;;;;4945016;28;116054;-83
2023/12/19 05:48:22;;;;;;;17.95;8.45;;;4.90;60.10;;;;;;4943139;28;114743;-81
2023/12/19 05:50:52;;;;;;;15.57;8.18;;;5.00;60.20;;;;;;4942959;28;114730;-83
2023/12/19 05:53:19;;;;;;;15.70;7.60;;;4.90;60.10;;;;;;4943861;28;117911;-83
2023/12/19 05:55:47;;;;;;;17.10;7.60;;;5.00;60.10;;;;;;4956581;28;115655;-83
2023/12/19 05:58:14;;;;;;;18.40;7.47;;;4.90;59.80;;;;;;4963874;28;117579;-84
2023/12/19 06:00:48;;;;;;;22.45;8.32;;;4.90;60.00;;;;;;4959827;28;114815;-82
2023/12/19 06:03:16;;;;;;;32.88;11.43;;;4.90;59.90;;;;;;4952939;28;115223;-83
2023/12/19 06:05:43;;;;;;;25.90;10.73;;;4.90;60.00;;;;;;4954235;28;115905;-83
2023/12/19 06:08:11;;;;;;;23.73;8.82;;;4.90;60.00;;;;;;4954603;28;114497;-84
2023/12/19 06:10:38;;;;;;;17.88;9.48;;;4.90;60.00;;;;;;4941606;28;115170;-84
2023/12/19 06:13:06;;;;;;;17.38;7.38;;;4.90;60.10;;;;;;4955041;28;115173;-84
2023/12/19 06:15:33;;;;;;;15.15;7.00;;;4.90;60.10;;;;;;4944486;28;114663;-83
2023/12/19 06:18:01;;;;;;;11.07;6.18;;;4.80;60.20;;;;;;4954213;28;114518;-82
2023/12/19 06:20:28;;;;;;;14.57;6.53;;;4.90;60.20;;;;;;4954113;28;114504;-84
2023/12/19 06:22:55;;;;;;;12.73;6.18;;;4.80;60.20;;;;;;4951055;28;115089;-83
2023/12/19 06:25:28;;;;;;;15.85;7.75;;;4.80;60.20;;;;;;4958148;28;115726;-83
2023/12/19 06:27:56;;;;;;;14.88;6.60;;;4.80;60.20;;;;;;4957013;28;114668;-84
2023/12/19 06:30:24;;;;;;;16.30;6.00;;;4.80;60.20;;;;;;4940789;28;114937;-84
2023/12/19 06:32:58;;;;;;;;;;;4.80;60.30;;;;;;4925595;28;115380;-83
2023/12/19 06:35:30;;;;;;;11.82;6.63;;;4.70;60.30;;;;;;4926050;28;115066;-84
2023/12/19 06:37:58;;;;;;;19.95;6.10;;;4.70;60.30;;;;;;4924680;28;121941;-83
2023/12/19 06:40:26;;;;;;;19.27;6.60;;;4.80;60.30;;;;;;4941642;28;114825;-85
2023/12/19 06:42:53;;;;;;;11.07;5.97;;;4.80;60.10;;;;;;4953558;28;117303;-84
2023/12/19 06:45:21;;;;;;;14.90;5.88;;;4.80;60.10;;;;;;4961904;28;114828;-84
2023/12/19 06:47:49;;;;;;;12.40;5.60;;;4.80;60.10;;;;;;4919442;28;114431;-85
2023/12/19 06:50:18;;;;;;;13.93;6.20;;;4.80;60.30;;;;;;4935499;28;114574;-83
2023/12/19 06:52:46;;;;;;;13.60;7.03;;;4.90;60.20;;;;;;4950595;28;115347;-82
2023/12/19 06:55:14;;;;;;;12.40;5.53;;;4.90;60.10;;;;;;4954928;28;114698;-83
2023/12/19 06:57:41;;;;;;;9.73;4.93;;;4.90;59.60;;;;;;4945164;28;114815;-82
2023/12/19 07:00:09;;;;;;;16.45;6.38;;;4.90;59.80;;;;;;4944732;28;114767;-82
2023/12/19 07:02:37;;;;;;;16.17;6.65;;;5.00;59.80;;;;;;4943053;28;115175;-81
2023/12/19 07:05:05;;;;;;;13.68;5.65;;;5.00;59.70;;;;;;4944794;28;115396;-83
2023/12/19 07:07:32;;;;;;;11.57;5.55;;;5.00;59.60;;;;;;4944078;28;114630;-84
2023/12/19 07:10:01;;;;;;;12.45;6.05;;;5.00;59.40;;;;;;4945343;28;114464;-83
2023/12/19 07:12:29;;;;;;;12.73;4.65;;;5.10;59.40;;;;;;4944254;28;116227;-83
2023/12/19 07:14:57;;;;;;;10.73;4.97;;;5.10;59.20;;;;;;4943461;28;114896;-83
2023/12/19 07:17:24;;;;;;;7.85;4.72;;;5.20;59.10;;;;;;4927668;28;114656;-81
2023/12/19 07:19:51;;;;;;;12.30;5.50;;;5.20;58.80;;;;;;4945045;28;114924;-83
2023/12/19 07:22:19;;;;;;;13.10;6.00;;;5.20;58.80;;;;;;4944633;28;115116;-83
2023/12/19 07:24:46;;;;;;;17.52;7.07;;;5.20;58.80;;;;;;4963893;28;114608;-83
2023/12/19 07:27:15;;;;;;;19.55;8.00;;;5.30;58.80;;;;;;4951323;28;114674;-83
2023/12/19 07:29:42;;;;;;;21.85;7.60;;;5.30;58.80;;;;;;4936999;28;114720;-83
2023/12/19 07:32:09;;;;;;;15.48;6.40;;;5.30;58.90;;;;;;4950935;28;115569;-83
2023/12/19 07:34:37;;;;;;;14.98;6.18;;;5.30;58.70;;;;;;4952091;28;117246;-83
2023/12/19 07:37:30;;;;;;;16.20;7.28;;;5.30;58.70;;;;;;4956910;28;115005;-83
2023/12/19 07:44:42;;;;;;;15.45;6.60;;;5.50;58.40;;;;;;4905532;28;115345;-83
2023/12/19 07:47:10;;;;;;;12.98;6.35;;;5.60;58.30;;;;;;4910687;28;114830;-84
2023/12/19 07:49:38;;;;;;;16.05;6.05;;;5.60;58.20;;;;;;4922223;28;116161;-84
2023/12/19 07:52:10;;;;;;;10.40;5.90;;;5.70;57.90;;;;;;4907571;28;114730;-83
2023/12/19 07:54:42;;;;;;;13.00;6.15;;;5.70;57.90;;;;;;4900121;28;117486;-82
2023/12/19 07:57:12;;;;;;;13.30;6.60;;;5.70;57.80;;;;;;4900189;28;114787;-82
2023/12/19 07:59:39;;;;;;;11.65;5.63;;;5.90;57.70;;;;;;4925870;28;114801;-83
2023/12/19 08:02:07;;;;;;;15.85;6.38;;;5.90;57.70;;;;;;4922246;28;114730;-83
2023/12/19 08:04:35;;;;;;;11.45;5.57;;;5.90;57.50;;;;;;4918211;28;115772;-85
2023/12/19 08:07:05;;;;;;;11.60;5.32;;;6.00;57.20;;;;;;4917481;28;114841;-84
2023/12/19 08:09:33;;;;;;;15.20;5.80;;;6.10;56.90;;;;;;4905844;28;114663;-83
2023/12/19 08:12:01;;;;;;;14.30;6.15;;;6.10;57.00;;;;;;4947504;28;115175;-84
2023/12/19 08:14:29;;;;;;;12.32;5.82;;;6.20;56.90;;;;;;4928003;28;115119;-83
2023/12/19 08:16:57;;;;;;;12.75;5.93;;;6.20;56.50;;;;;;4925564;28;114721;-82
2023/12/19 08:19:28;;;;;;;17.13;6.95;;;6.20;56.70;;;;;;4960915;28;114857;-82
2023/12/19 08:21:58;;;;;;;14.20;6.38;;;6.20;56.50;;;;;;4947254;28;114556;-84
2023/12/19 08:24:25;;;;;;;10.85;5.80;;;6.30;56.50;;;;;;4945309;28;114822;-83
2023/12/19 08:26:53;;;;;;;13.95;5.95;;;6.30;56.20;;;;;;4945186;28;114715;-83
2023/12/19 08:29:21;;;;;;;13.77;5.80;;;6.20;56.00;;;;;;4941806;28;114666;-83
2023/12/19 08:31:49;;;;;;;14.68;6.22;;;6.30;56.00;;;;;;4942092;28;114703;-83
2023/12/19 08:34:19;;;;;;;12.20;6.00;;;6.30;55.80;;;;;;4925624;28;115681;-82
2023/12/19 08:36:47;;;;;;;11.85;5.28;;;6.30;56.00;;;;;;4926120;28;115057;-83
2023/12/19 08:39:20;;;;;;;11.63;5.50;;;6.30;55.70;;;;;;4940087;28;114650;-83
2023/12/19 08:41:48;;;;;;;15.73;6.00;;;6.40;55.70;;;;;;4945184;28;114560;-83
2023/12/19 08:44:15;;;;;;;12.85;5.97;;;6.40;55.70;;;;;;4943973;28;115032;-83
2023/12/19 08:46:46;;;;;;;16.13;6.50;;;6.40;55.90;;;;;;4945716;28;115191;-83
2023/12/19 08:49:15;;;;;;;13.73;7.07;;;6.40;55.90;;;;;;4945269;28;114887;-83
2023/12/19 08:51:47;;;;;;;12.50;6.35;;;6.40;56.00;;;;;;4944883;28;114900;-83
2023/12/19 08:54:15;;;;;;;13.73;7.35;;;6.40;56.00;;;;;;4943482;28;115164;-84
2023/12/19 08:56:46;;;;;;;17.27;8.30;;;6.40;56.00;;;;;;4944595;28;115279;-84
2023/12/19 08:59:13;;;;;;;14.98;8.32;;;6.40;56.00;;;;;;4927793;28;114599;-84
2023/12/19 09:01:41;;;;;;;17.90;8.45;;;6.40;55.90;;;;;;4945026;28;114543;-83
2023/12/19 09:04:09;;;;;;;18.60;7.05;;;6.50;56.00;;;;;;4944427;28;115300;-83
2023/12/19 09:06:39;;;;;;;18.85;7.70;;;6.50;55.90;;;;;;4927892;28;115313;-83
2023/12/19 09:09:11;;;;;;;20.60;6.90;;;6.50;55.90;;;;;;4944396;28;114408;-82
2023/12/19 09:11:39;;;;;;;16.95;6.97;;;6.60;55.90;;;;;;4946742;28;114498;-84
2023/12/19 09:14:12;;;;;;;10.95;6.05;;;6.70;55.70;;;;;;4945949;28;115189;-83
2023/12/19 09:16:39;;;;;;;14.07;6.07;;;6.80;55.50;;;;;;4946600;28;117108;-83
2023/12/19 09:19:09;;;;;;;14.32;6.45;;;6.90;55.30;;;;;;4944344;28;115214;-83
2023/12/19 09:21:37;;;;;;;14.88;7.18;;;7.00;55.20;;;;;;4945972;28;114322;-82
2023/12/19 09:24:08;;;;;;;16.48;6.78;;;7.20;55.10;;;;;;4930085;28;116368;-83
2023/12/19 09:26:43;;;;;;;16.35;7.10;;;7.30;54.90;;;;;;4953237;28;114845;-83
2023/12/19 09:29:10;;;;;;;12.93;6.40;;;7.40;54.50;;;;;;4966208;28;114701;-82
2023/12/19 09:31:46;;;;;;;10.07;5.30;;;7.40;54.30;;;;;;4950959;28;114667;-83
2023/12/19 09:34:14;;;;;;;12.88;5.43;;;7.50;53.40;;;;;;4965326;28;115645;-82
2023/12/19 09:36:44;;;;;;;10.38;6.53;;;7.40;53.50;;;;;;4964605;28;114943;-82
2023/12/19 09:39:23;;;;;;;15.80;6.05;;;7.50;53.60;;;;;;4951625;28;114327;-81
2023/12/19 09:41:51;;;;;;;13.88;5.95;;;7.50;53.50;;;;;;4948100;28;114693;-82
2023/12/19 09:44:18;;;;;;;18.52;6.95;;;7.40;53.50;;;;;;4946223;28;116041;-83
2023/12/19 09:46:53;;;;;;;11.55;4.97;;;7.40;53.10;;;;;;4943938;28;114912;-83
2023/12/19 09:49:25;;;;;;;12.48;5.85;;;7.40;53.20;;;;;;4955368;28;114579;-84
2023/12/19 09:51:53;;;;;;;11.40;5.90;;;7.40;53.00;;;;;;4976590;28;115219;-84
2023/12/19 09:54:21;;;;;;;14.82;5.90;;;7.40;53.10;;;;;;4961233;28;114253;-81
2023/12/19 09:56:52;;;;;;;12.30;6.25;;;7.40;53.20;;;;;;4952270;28;114923;-83
2023/12/19 09:59:21;;;;;;;12.38;5.22;;;7.40;52.80;;;;;;4946995;28;114539;-83
2023/12/19 10:01:48;;;;;;;10.65;5.72;;;7.40;53.00;;;;;;4933669;28;114289;-83
2023/12/19 10:04:17;;;;;;;11.60;5.85;;;7.40;53.10;;;;;;4946217;28;118105;-83
2023/12/19 10:06:58;;;;;;;10.77;5.45;;;7.50;53.20;;;;;;4943861;28;114823;-83
2023/12/19 10:09:26;;;;;;;10.77;5.80;;;7.50;53.00;;;;;;4932518;28;114610;-83
2023/12/19 10:12:27;;;;;;;10.32;5.40;;;7.50;53.30;;;;;;4949942;28;114805;-83
2023/12/19 10:15:13;;;;;;;10.15;5.28;;;7.70;52.50;;;;;;4947681;28;115006;-82
2023/12/19 10:18:07;;;;;;;10.20;4.10;;;7.70;52.60;;;;;;4948943;28;114901;-83
2023/12/19 10:20:40;;;;;;;7.70;4.15;;;7.70;52.30;;;;;;4931668;28;114703;-83
2023/12/19 10:23:09;;;;;;;7.47;3.78;;;7.80;52.00;;;;;;4933522;28;114489;-82
2023/12/19 10:25:36;;;;;;;7.90;4.30;;;7.80;51.70;;;;;;4964549;28;116415;-82
2023/12/19 10:28:13;;;;;;;7.22;4.30;;;7.90;51.30;;;;;;4946691;28;114537;-83
2023/12/19 10:30:48;;;;;;;7.95;3.90;;;7.90;50.40;;;;;;4949939;28;114288;-83
2023/12/19 10:33:15;;;;;;;9.35;3.83;;;7.90;50.30;;;;;;4932012;28;114646;-83
2023/12/19 10:35:46;;;;;;;8.05;4.07;;;8.00;50.60;;;;;;4948198;28;115242;-81
2023/12/19 10:38:13;;;;;;;9.55;4.22;;;8.00;50.50;;;;;;4947364;28;115232;-82
2023/12/19 10:40:41;;;;;;;8.63;4.63;;;8.10;50.30;;;;;;4949022;28;114308;-81
2023/12/19 10:43:08;;;;;;;8.45;4.60;;;8.10;50.20;;;;;;4915129;28;114397;-84
2023/12/19 10:45:38;;;;;;;9.13;4.38;;;8.10;50.10;;;;;;4943233;28;116433;-82
2023/12/19 10:48:07;;;;;;;10.15;4.30;;;8.10;50.30;;;;;;4913954;28;118226;-82
2023/12/19 10:50:35;;;;;;;9.80;4.68;;;8.20;50.10;;;;;;4948692;28;114636;-83
2023/12/19 10:53:03;;;;;;;10.77;5.20;;;8.20;50.00;;;;;;4945652;28;114505;-83
2023/12/19 10:55:44;;;;;;;7.85;4.95;;;8.20;50.60;;;;;;4951499;28;115573;-82
2023/12/19 10:58:13;;;;;;;9.93;5.80;;;8.20;49.90;;;;;;4913828;28;114845;-82
2023/12/19 11:00:41;;;;;;;9.35;5.60;;;8.20;50.80;;;;;;4928523;28;114668;-83
2023/12/19 11:03:14;;;;;;;10.50;5.57;;;8.20;50.70;;;;;;4947817;28;114604;-84
2023/12/19 11:05:47;;;;;;;9.65;5.10;;;8.20;50.40;;;;;;4961953;28;115652;-83
2023/12/19 11:08:19;;;;;;;8.98;5.30;;;8.20;51.00;;;;;;4945078;28;115096;-82
2023/12/19 11:11:03;;;;;;;11.45;5.47;;;8.30;51.30;;;;;;4946876;28;114316;-83
2023/12/19 11:13:34;;;;;;;10.85;6.05;;;8.30;51.30;;;;;;4945822;28;114613;-83
2023/12/19 11:16:48;;;;;;;15.48;6.40;;;8.30;51.50;;;;;;4945259;28;115150;-82
2023/12/19 11:19:32;;;;;;;10.90;5.75;;;8.40;51.20;;;;;;4942376;28;114885;-84
2023/12/19 11:22:47;;;;;;;13.57;5.70;;;8.40;51.30;;;;;;4932974;28;114569;-83
2023/12/19 11:25:39;;;;;;;11.13;4.78;;;8.50;51.10;;;;;;4946508;28;114524;-83
2023/12/19 11:28:07;;;;;;;10.98;4.93;;;8.50;50.60;;;;;;4945002;28;115121;-83
2023/12/19 11:30:40;;;;;;;17.30;5.60;;;8.60;50.40;;;;;;4946009;28;114729;-84
2023/12/19 11:33:13;;;;;;;10.13;6.03;;;8.70;50.40;;;;;;4948331;28;114172;-82
2023/12/19 11:35:41;;;;;;;11.38;6.00;;;8.80;50.50;;;;;;4945596;28;114481;-82
2023/12/19 11:38:28;;;;;;;11.88;6.20;;;8.90;50.40;;;;;;4946519;28;115816;-83
2023/12/19 11:40:57;;;;;;;11.68;5.90;;;9.00;49.90;;;;;;4945626;28;114544;-83
2023/12/19 11:43:28;;;;;;;12.38;5.65;;;9.00;49.90;;;;;;4927102;28;114650;-83
2023/12/19 11:46:03;;;;;;;11.18;5.97;;;9.00;49.80;;;;;;4960425;28;114509;-83
2023/12/19 11:48:51;;;;;;;10.90;5.50;;;9.20;49.50;;;;;;4954291;28;115689;-83
2023/12/19 11:51:46;;;;;;;12.55;5.10;;;9.20;49.50;;;;;;4962399;28;114480;-83
2023/12/19 11:54:14;;;;;;;8.55;5.03;;;9.20;49.30;;;;;;4914135;28;114501;-83
2023/12/19 11:56:41;;;;;;;10.80;4.63;;;9.20;49.50;;;;;;4936111;28;114253;-82
2023/12/19 11:59:09;;;;;;;8.75;4.53;;;9.20;49.20;;;;;;4947396;28;115287;-83
2023/12/19 12:01:40;;;;;;;10.35;5.35;;;9.20;49.10;;;;;;4930084;28;115990;-83
2023/12/19 12:04:10;;;;;;;11.30;5.07;;;9.20;48.90;;;;;;4963473;28;114297;-84
2023/12/19 12:06:38;;;;;;;7.75;4.65;;;9.20;48.90;;;;;;4948100;28;114332;-84
2023/12/19 12:09:06;;;;;;;8.57;4.68;;;9.20;49.10;;;;;;4946639;28;115204;-84
2023/12/19 12:11:51;;;;;;;9.70;4.60;;;9.10;49.00;;;;;;4945962;28;114826;-82
2023/12/19 12:14:19;;;;;;;11.10;5.40;;;9.20;48.80;;;;;;4957909;28;116110;-84
2023/12/19 12:16:46;;;;;;;9.95;4.68;;;9.10;49.00;;;;;;4929639;28;114415;-83
2023/12/19 12:19:16;;;;;;;11.40;5.20;;;9.00;49.20;;;;;;4947658;28;115581;-83
2023/12/19 12:21:53;;;;;;;11.37;5.40;;;9.00;49.20;;;;;;4945386;28;114739;-83
2023/12/19 12:24:22;;;;;;;14.30;5.75;;;9.00;49.40;;;;;;4940662;28;114711;-83
2023/12/19 12:27:11;;;;;;;10.55;6.18;;;8.90;49.30;;;;;;4926960;28;114635;-82
2023/12/19 12:29:39;;;;;;;11.00;5.70;;;9.00;49.40;;;;;;4952366;28;115557;-82
2023/12/19 12:32:08;;;;;;;10.95;5.30;;;9.00;49.50;;;;;;4969023;28;114765;-81
2023/12/19 12:34:35;;;;;;;11.38;5.00;;;9.10;49.20;;;;;;4966444;28;114842;-82
2023/12/19 12:37:02;;;;;;;8.50;4.05;;;9.20;48.70;;;;;;4966174;28;114840;-82
2023/12/19 12:39:30;;;;;;;4.40;1.70;;;9.20;47.70;;;;;;4962668;28;115161;-82
2023/12/19 12:42:05;;;;;;;2.60;1.23;;;9.20;46.30;;;;;;4963296;28;115183;-83
2023/12/19 12:44:43;;;;;;;6.57;2.58;;;9.30;45.10;;;;;;4960458;28;114476;-82
2023/12/19 12:47:11;;;;;;;10.18;4.55;;;9.40;45.30;;;;;;4945463;28;114608;-84
2023/12/19 12:49:38;;;;;;;10.88;5.90;;;9.40;46.30;;;;;;4929097;28;119506;-82
2023/12/19 12:52:06;;;;;;;12.35;6.63;;;9.40;46.70;;;;;;4943142;28;116946;-83
2023/12/19 12:54:33;;;;;;;11.30;5.57;;;9.40;47.00;;;;;;4946561;28;114327;-82